Time;durP1;ratioP1;P1;durP2;ratioP2;P2;SDS_P1;SDS_P2;PMS_P1;PMS_P2;Temp;Humidity;BMP_temperature;BMP_pressure;BME280_temperature;BME280_humidity;BME280_pressure;Samples;Min_cycle;Max_cycle;Signal;HPM_P1;HPM_P2
2023/01/09 00:01:37;;;;;;;129.38;66.20;;;;;;;;;;4898013;29;20040;-71
2023/01/09 00:04:04;;;;;;;129.95;65.03;;;;;;;;;;4898064;29;20097;-71
2023/01/09 00:06:29;;;;;;;136.93;70.07;;;;;;;;;;4896965;29;20123;-71
2023/01/09 00:08:56;;;;;;;142.23;70.15;;;;;;;;;;4897995;29;20131;-71
2023/01/09 00:11:22;;;;;;;118.28;62.53;;;;;;;;;;4898408;29;20103;-71
2023/01/09 00:13:48;;;;;;;103.15;54.33;;;;;;;;;;4898479;29;20422;-71
2023/01/09 00:16:14;;;;;;;110.25;58.05;;;;;;;;;;4898198;29;20032;-71
2023/01/09 00:18:40;;;;;;;109.40;58.35;;;;;;;;;;4898181;29;20040;-70
2023/01/09 00:21:10;;;;;;;114.55;60.13;;;;;;;;;;4897840;29;20055;-71
2023/01/09 00:23:36;;;;;;;120.10;63.40;;;;;;;;;;4898213;29;20414;-71
2023/01/09 00:26:10;;;;;;;122.50;63.40;;;;;;;;;;4897946;29;20029;-70
2023/01/09 00:28:37;;;;;;;117.82;61.78;;;;;;;;;;4897805;29;20044;-71
2023/01/09 00:31:05;;;;;;;117.85;59.45;;;;;;;;;;4896593;29;20503;-71
2023/01/09 00:33:43;;;;;;;121.03;61.45;;;;;;;;;;4897778;29;20918;-71
2023/01/09 00:36:09;;;;;;;148.88;80.75;;;;;;;;;;4897362;29;20065;-71
2023/01/09 00:38:36;;;;;;;145.88;79.75;;;;;;;;;;4895806;29;20044;-71
2023/01/09 00:41:04;;;;;;;142.50;77.53;;;;;;;;;;4897357;29;20068;-70
2023/01/09 00:43:35;;;;;;;150.88;77.65;;;;;;;;;;4897999;29;20463;-70
2023/01/09 00:46:04;;;;;;;142.70;74.75;;;;;;;;;;4897594;29;20131;-71
2023/01/09 00:48:32;;;;;;;139.10;70.15;;;;;;;;;;4897275;29;20458;-71
2023/01/09 00:50:59;;;;;;;141.57;71.43;;;;;;;;;;4897376;29;20104;-71
2023/01/09 00:53:31;;;;;;;135.82;70.50;;;;;;;;;;4897543;29;20025;-71
2023/01/09 00:56:03;;;;;;;129.73;66.55;;;;;;;;;;4897802;29;20414;-71
2023/01/09 00:58:31;;;;;;;122.75;61.97;;;;;;;;;;4897409;29;20401;-71
2023/01/09 01:00:57;;;;;;;109.22;58.63;;;;;;;;;;4897966;29;20035;-72
2023/01/09 01:03:23;;;;;;;105.80;55.55;;;;;;;;;;4897578;29;20052;-71
2023/01/09 01:08:33;;;;;;;98.30;49.20;;;;;;;;;;4897151;29;20048;-72
2023/01/09 01:11:09;;;;;;;91.80;47.80;;;;;;;;;;4897464;29;20059;-70
2023/01/09 01:13:36;;;;;;;96.10;48.08;;;;;;;;;;4897309;29;20032;-70
2023/01/09 01:16:10;;;;;;;74.85;40.30;;;;;;;;;;4899446;29;20024;-71
2023/01/09 01:18:36;;;;;;;64.72;32.78;;;;;;;;;;4896210;29;20069;-70
2023/01/09 01:21:10;;;;;;;59.17;31.70;;;;;;;;;;4897600;29;20111;-70
2023/01/09 01:23:37;;;;;;;53.63;30.27;;;;;;;;;;4896389;29;20078;-71
2023/01/09 01:26:13;;;;;;;55.40;30.50;;;;;;;;;;4896429;29;20040;-71
2023/01/09 01:28:39;;;;;;;45.03;27.75;;;;;;;;;;4902259;29;20035;-71
2023/01/09 01:31:05;;;;;;;49.40;26.48;;;;;;;;;;4915478;29;20042;-71
2023/01/09 01:33:31;;;;;;;44.85;24.15;;;;;;;;;;4897424;29;20043;-72
2023/01/09 01:36:03;;;;;;;40.88;23.33;;;;;;;;;;4897834;29;20031;-71
2023/01/09 01:38:30;;;;;;;45.72;25.98;;;;;;;;;;4896369;29;20033;-71
2023/01/09 01:40:55;;;;;;;50.35;28.40;;;;;;;;;;4898232;29;20083;-72
2023/01/09 01:43:21;;;;;;;53.15;27.73;;;;;;;;;;4899554;29;20045;-71
2023/01/09 01:45:47;;;;;;;44.78;26.33;;;;;;;;;;4898856;29;20461;-71
2023/01/09 01:48:25;;;;;;;49.88;27.33;;;;;;;;;;4896447;29;20112;-71
2023/01/09 01:50:57;;;;;;;43.25;23.88;;;;;;;;;;4896408;29;20035;-71
2023/01/09 01:53:35;;;;;;;48.38;27.42;;;;;;;;;;4893224;29;20129;-71
2023/01/09 01:56:11;;;;;;;40.72;24.73;;;;;;;;;;4896161;29;20088;-70
2023/01/09 01:58:42;;;;;;;51.60;26.65;;;;;;;;;;4895256;29;20051;-70
2023/01/09 02:01:08;;;;;;;48.63;24.92;;;;;;;;;;4895779;29;20052;-71
2023/01/09 02:03:35;;;;;;;60.38;31.70;;;;;;;;;;4894082;29;20045;-71
2023/01/09 02:06:03;;;;;;;72.90;36.00;;;;;;;;;;4892843;29;20120;-71
2023/01/09 02:08:30;;;;;;;75.70;40.25;;;;;;;;;;4896385;29;20456;-71
2023/01/09 02:10:56;;;;;;;65.45;37.67;;;;;;;;;;4895954;29;20093;-72
2023/01/09 02:13:23;;;;;;;74.47;39.72;;;;;;;;;;4895849;29;20514;-71
2023/01/09 02:16:05;;;;;;;69.95;36.13;;;;;;;;;;4895427;29;20040;-71
2023/01/09 02:18:44;;;;;;;70.13;39.13;;;;;;;;;;4895846;29;20084;-71
2023/01/09 02:21:35;;;;;;;64.28;36.10;;;;;;;;;;4898189;29;20047;-70
2023/01/09 02:24:27;;;;;;;66.88;36.25;;;;;;;;;;4896178;29;20048;-70
2023/01/09 02:27:17;;;;;;;61.85;32.75;;;;;;;;;;4886316;29;20029;-71
2023/01/09 02:30:04;;;;;;;74.78;36.15;;;;;;;;;;4895442;29;20029;-71
2023/01/09 02:32:39;;;;;;;61.58;33.72;;;;;;;;;;4893217;29;20510;-71
2023/01/09 02:35:30;;;;;;;61.65;32.85;;;;;;;;;;4893126;29;20455;-71
2023/01/09 02:38:33;;;;;;;56.50;30.35;;;;;;;;;;4894304;29;20103;-71
2023/01/09 02:41:15;;;;;;;62.33;33.72;;;;;;;;;;4885897;29;20186;-70
2023/01/09 02:43:41;;;;;;;62.53;33.47;;;;;;;;;;4896763;29;20092;-71
2023/01/09 02:46:33;;;;;;;60.45;34.08;;;;;;;;;;4895985;29;20032;-71
2023/01/09 02:48:59;;;;;;;64.43;34.05;;;;;;;;;;4895209;29;20048;-71
2023/01/09 02:51:31;;;;;;;61.13;32.78;;;;;;;;;;4897317;29;20035;-71
2023/01/09 02:54:03;;;;;;;58.40;32.90;;;;;;;;;;4911719;29;20051;-71
2023/01/09 02:56:31;;;;;;;58.45;33.05;;;;;;;;;;4896902;29;20041;-71
2023/01/09 02:59:16;;;;;;;61.92;33.75;;;;;;;;;;4895216;29;20533;-71
2023/01/09 03:02:15;;;;;;;56.08;31.55;;;;;;;;;;4894093;29;20037;-71
2023/01/09 03:05:00;;;;;;;55.75;30.45;;;;;;;;;;4898603;29;20044;-71
2023/01/09 03:07:32;;;;;;;57.63;33.83;;;;;;;;;;4900420;29;20047;-70
2023/01/09 03:10:09;;;;;;;59.60;33.08;;;;;;;;;;4899742;29;20124;-71
2023/01/09 03:12:37;;;;;;;61.10;31.70;;;;;;;;;;4899294;29;20451;-71
2023/01/09 03:15:05;;;;;;;60.53;33.25;;;;;;;;;;4899987;29;20025;-70
2023/01/09 03:17:36;;;;;;;53.38;30.02;;;;;;;;;;4899724;29;20505;-70
2023/01/09 03:20:05;;;;;;;59.85;32.38;;;;;;;;;;4900248;29;20037;-71
2023/01/09 03:22:31;;;;;;;62.17;32.50;;;;;;;;;;4900351;29;20107;-71
2023/01/09 03:24:57;;;;;;;65.53;34.15;;;;;;;;;;4899927;29;20055;-71
2023/01/09 03:27:23;;;;;;;68.40;34.83;;;;;;;;;;4899588;29;20025;-71
2023/01/09 03:29:50;;;;;;;67.22;37.47;;;;;;;;;;4899602;29;20089;-71
2023/01/09 03:32:15;;;;;;;65.32;35.53;;;;;;;;;;4899884;29;20071;-71
2023/01/09 03:34:41;;;;;;;69.38;36.00;;;;;;;;;;4899962;29;20068;-72
2023/01/09 03:37:07;;;;;;;63.25;33.78;;;;;;;;;;4899593;29;20037;-71
2023/01/09 03:39:33;;;;;;;62.78;33.78;;;;;;;;;;4898423;29;20040;-71
2023/01/09 03:41:58;;;;;;;67.65;35.42;;;;;;;;;;4899381;29;20551;-72
2023/01/09 03:44:25;;;;;;;71.35;36.20;;;;;;;;;;4899171;29;20039;-70
2023/01/09 03:46:51;;;;;;;67.60;36.40;;;;;;;;;;4899384;29;20450;-70
2023/01/09 03:49:17;;;;;;;68.00;35.22;;;;;;;;;;4898095;29;20063;-71
2023/01/09 03:51:42;;;;;;;63.40;33.33;;;;;;;;;;4899503;29;20029;-70
2023/01/09 03:54:08;;;;;;;63.15;33.15;;;;;;;;;;4899593;29;20028;-71
2023/01/09 03:56:34;;;;;;;71.78;33.10;;;;;;;;;;4899662;29;20439;-70
2023/01/09 03:59:00;;;;;;;52.45;28.75;;;;;;;;;;4899423;29;20574;-71
2023/01/09 04:01:26;;;;;;;49.80;28.42;;;;;;;;;;4899013;29;20029;-70
2023/01/09 04:03:51;;;;;;;53.25;27.73;;;;;;;;;;4897850;29;20109;-71
2023/01/09 04:06:17;;;;;;;45.03;26.10;;;;;;;;;;4899219;29;20053;-71
2023/01/09 04:08:45;;;;;;;44.15;25.98;;;;;;;;;;4899339;29;20047;-71
2023/01/09 04:11:10;;;;;;;47.35;27.60;;;;;;;;;;4899684;29;20044;-71
2023/01/09 04:13:37;;;;;;;48.70;26.52;;;;;;;;;;4899320;29;20399;-72
2023/01/09 04:16:03;;;;;;;47.50;25.85;;;;;;;;;;4896862;29;20542;-72
2023/01/09 04:18:28;;;;;;;45.63;24.70;;;;;;;;;;4898475;29;20139;-71
2023/01/09 04:20:54;;;;;;;44.55;24.83;;;;;;;;;;4898469;29;20055;-70
2023/01/09 04:23:20;;;;;;;43.45;24.88;;;;;;;;;;4898447;29;20052;-71
2023/01/09 04:25:46;;;;;;;48.50;25.63;;;;;;;;;;4898439;29;20108;-72
2023/01/09 04:28:12;;;;;;;43.42;23.77;;;;;;;;;;4898485;29;20075;-70
2023/01/09 04:30:38;;;;;;;49.72;25.38;;;;;;;;;;4898461;29;20167;-71
2023/01/09 04:33:03;;;;;;;43.10;23.58;;;;;;;;;;4898519;29;20060;-71
2023/01/09 04:35:29;;;;;;;44.05;24.67;;;;;;;;;;4898026;29;20431;-70
2023/01/09 04:37:55;;;;;;;51.72;24.92;;;;;;;;;;4897940;29;20407;-70
2023/01/09 04:40:21;;;;;;;50.25;27.00;;;;;;;;;;4898243;29;20127;-71
2023/01/09 04:42:47;;;;;;;45.67;26.50;;;;;;;;;;4898372;29;20123;-71
2023/01/09 04:45:14;;;;;;;52.75;25.67;;;;;;;;;;4883425;29;20040;-71
2023/01/09 04:47:40;;;;;;;39.33;21.23;;;;;;;;;;4879238;29;20200;-71
2023/01/09 04:50:07;;;;;;;28.63;16.38;;;;;;;;;;4879172;29;20029;-71
2023/01/09 04:52:32;;;;;;;30.25;15.20;;;;;;;;;;4879444;29;20128;-71
2023/01/09 04:54:58;;;;;;;26.60;14.50;;;;;;;;;;4880138;29;20096;-71
2023/01/09 04:57:24;;;;;;;28.90;14.80;;;;;;;;;;4886484;29;20044;-72
2023/01/09 04:59:50;;;;;;;27.33;13.63;;;;;;;;;;4898490;29;20021;-71
2023/01/09 05:02:17;;;;;;;26.77;14.40;;;;;;;;;;4897286;29;20044;-71
2023/01/09 05:04:43;;;;;;;28.33;13.98;;;;;;;;;;4898175;29;20048;-72
2023/01/09 05:07:09;;;;;;;22.65;13.80;;;;;;;;;;4897515;29;20037;-70
2023/01/09 05:09:34;;;;;;;23.58;13.55;;;;;;;;;;4897805;29;20637;-72
2023/01/09 05:12:00;;;;;;;20.48;11.38;;;;;;;;;;4896476;29;20487;-71
2023/01/09 05:14:26;;;;;;;28.30;13.35;;;;;;;;;;4897845;29;20502;-72
2023/01/09 05:16:53;;;;;;;25.73;13.45;;;;;;;;;;4895569;29;20032;-71
2023/01/09 05:19:20;;;;;;;25.75;13.63;;;;;;;;;;4896601;29;20395;-71
2023/01/09 05:21:46;;;;;;;29.88;15.40;;;;;;;;;;4896560;29;20032;-71
2023/01/09 05:24:11;;;;;;;31.58;16.38;;;;;;;;;;4897951;29;20526;-71
2023/01/09 05:26:37;;;;;;;32.85;16.80;;;;;;;;;;4896972;29;20558;-71
2023/01/09 05:29:03;;;;;;;39.95;20.33;;;;;;;;;;4894846;29;20033;-72
2023/01/09 05:31:29;;;;;;;37.88;20.85;;;;;;;;;;4897315;29;20037;-70
2023/01/09 05:33:55;;;;;;;44.88;22.48;;;;;;;;;;4897596;29;20559;-71
2023/01/09 05:36:20;;;;;;;42.13;23.98;;;;;;;;;;4897268;29;20028;-71
2023/01/09 05:38:46;;;;;;;50.00;25.35;;;;;;;;;;4897154;29;20120;-71
2023/01/09 05:41:12;;;;;;;36.58;18.80;;;;;;;;;;4896858;29;20096;-71
2023/01/09 05:43:38;;;;;;;30.52;17.23;;;;;;;;;;4896974;29;20032;-71
2023/01/09 05:46:04;;;;;;;31.52;17.27;;;;;;;;;;4896649;29;20036;-71
2023/01/09 05:48:29;;;;;;;33.95;15.80;;;;;;;;;;4896389;29;20043;-71
2023/01/09 05:50:55;;;;;;;29.40;16.83;;;;;;;;;;4896938;29;20045;-71
2023/01/09 05:53:21;;;;;;;30.65;16.67;;;;;;;;;;4896991;29;20039;-72
2023/01/09 05:55:46;;;;;;;26.13;14.90;;;;;;;;;;4897228;29;20041;-71
2023/01/09 05:58:12;;;;;;;28.33;15.35;;;;;;;;;;4897060;29;20108;-71
2023/01/09 06:00:38;;;;;;;25.05;14.85;;;;;;;;;;4896474;29;20065;-71
2023/01/09 06:03:05;;;;;;;28.27;15.32;;;;;;;;;;4896369;29;20049;-71
2023/01/09 06:05:30;;;;;;;28.35;16.48;;;;;;;;;;4896504;29;20067;-71
2023/01/09 06:07:56;;;;;;;38.58;16.52;;;;;;;;;;4896442;29;20067;-71
2023/01/09 06:10:22;;;;;;;32.05;16.65;;;;;;;;;;4895077;29;20052;-71
2023/01/09 06:12:50;;;;;;;34.42;17.48;;;;;;;;;;4895972;29;20479;-71
2023/01/09 06:15:16;;;;;;;29.00;16.52;;;;;;;;;;4896449;29;20120;-71
2023/01/09 06:17:44;;;;;;;31.25;15.73;;;;;;;;;;4895407;29;20033;-72
2023/01/09 06:20:10;;;;;;;27.17;15.65;;;;;;;;;;4896136;29;20608;-72
2023/01/09 06:22:36;;;;;;;32.75;16.45;;;;;;;;;;4891666;29;20111;-72
2023/01/09 06:25:03;;;;;;;36.67;17.17;;;;;;;;;;4891908;29;20119;-73
2023/01/09 06:27:30;;;;;;;31.15;18.80;;;;;;;;;;4896387;29;20024;-72
2023/01/09 06:29:57;;;;;;;31.20;18.50;;;;;;;;;;4896354;29;20089;-72
2023/01/09 06:32:23;;;;;;;37.33;17.77;;;;;;;;;;4896197;29;20117;-72
2023/01/09 06:34:48;;;;;;;30.30;17.25;;;;;;;;;;4895951;29;20112;-73
2023/01/09 06:37:14;;;;;;;29.38;17.33;;;;;;;;;;4896160;29;20025;-73
2023/01/09 06:39:40;;;;;;;30.42;17.65;;;;;;;;;;4897243;29;20036;-73
2023/01/09 06:42:06;;;;;;;37.58;16.60;;;;;;;;;;4898659;29;20040;-73
2023/01/09 06:44:32;;;;;;;32.65;17.30;;;;;;;;;;4900316;29;20040;-71
2023/01/09 06:46:57;;;;;;;35.40;18.90;;;;;;;;;;4899379;29;20079;-72
2023/01/09 06:49:23;;;;;;;31.67;17.00;;;;;;;;;;4899977;29;20040;-72
2023/01/09 06:51:50;;;;;;;37.50;17.85;;;;;;;;;;4897927;29;20115;-72
2023/01/09 06:54:17;;;;;;;33.03;17.42;;;;;;;;;;4898549;29;20575;-72
2023/01/09 06:56:43;;;;;;;31.75;16.50;;;;;;;;;;4899782;29;20032;-71
2023/01/09 06:59:09;;;;;;;29.25;16.40;;;;;;;;;;4901378;29;20530;-72
2023/01/09 07:01:35;;;;;;;32.38;16.83;;;;;;;;;;4900536;29;20033;-72
2023/01/09 07:04:01;;;;;;;31.17;15.60;;;;;;;;;;4893819;29;20048;-72
2023/01/09 07:06:27;;;;;;;28.00;15.35;;;;;;;;;;4897372;29;20097;-71
2023/01/09 07:08:53;;;;;;;23.58;14.30;;;;;;;;;;4896532;29;20104;-71
2023/01/09 07:11:18;;;;;;;37.03;18.30;;;;;;;;;;4898712;29;20538;-71
2023/01/09 07:13:44;;;;;;;33.42;17.92;;;;;;;;;;4899063;29;20033;-72
2023/01/09 07:16:10;;;;;;;41.40;18.80;;;;;;;;;;4897818;29;20076;-72
2023/01/09 07:18:36;;;;;;;29.70;16.13;;;;;;;;;;4898608;29;20036;-72
2023/01/09 07:21:02;;;;;;;31.45;18.23;;;;;;;;;;4898756;29;20562;-72
2023/01/09 07:23:29;;;;;;;34.60;17.30;;;;;;;;;;4898089;29;20051;-72
2023/01/09 07:25:55;;;;;;;39.80;19.40;;;;;;;;;;4898438;29;20085;-72
2023/01/09 07:28:20;;;;;;;35.13;18.83;;;;;;;;;;4898521;29;20040;-72
2023/01/09 07:30:46;;;;;;;36.60;18.90;;;;;;;;;;4895219;29;20112;-71
2023/01/09 07:33:12;;;;;;;35.38;18.33;;;;;;;;;;4898149;29;20510;-71
2023/01/09 07:35:38;;;;;;;35.42;19.50;;;;;;;;;;4899279;29;20020;-72
2023/01/09 07:38:04;;;;;;;39.45;20.65;;;;;;;;;;4916500;29;20032;-73
2023/01/09 07:40:30;;;;;;;39.88;18.95;;;;;;;;;;4917066;29;20382;-71
2023/01/09 07:42:55;;;;;;;41.63;19.52;;;;;;;;;;4900056;29;20037;-71
2023/01/09 07:45:21;;;;;;;53.05;19.20;;;;;;;;;;4895239;29;20099;-72
2023/01/09 07:47:47;;;;;;;35.72;19.13;;;;;;;;;;4897436;29;20072;-72
2023/01/09 07:50:13;;;;;;;39.35;21.88;;;;;;;;;;4895784;29;20025;-73
2023/01/09 07:52:39;;;;;;;35.70;19.30;;;;;;;;;;4890855;29;20104;-71
2023/01/09 07:55:05;;;;;;;33.00;19.60;;;;;;;;;;4897013;29;20040;-73
2023/01/09 07:57:31;;;;;;;44.17;21.80;;;;;;;;;;4895687;29;20483;-71
2023/01/09 07:59:59;;;;;;;36.40;19.77;;;;;;;;;;4897055;29;20020;-73
2023/01/09 08:02:26;;;;;;;42.33;19.00;;;;;;;;;;4895368;29;20060;-76
2023/01/09 08:04:53;;;;;;;41.40;20.88;;;;;;;;;;4881554;29;20033;-71
2023/01/09 08:07:19;;;;;;;36.38;19.65;;;;;;;;;;4916237;29;20047;-72
2023/01/09 08:09:46;;;;;;;37.90;20.00;;;;;;;;;;4903549;29;20112;-73
2023/01/09 08:12:13;;;;;;;41.13;20.35;;;;;;;;;;4895586;29;20048;-72
2023/01/09 08:14:39;;;;;;;41.97;24.75;;;;;;;;;;4904182;29;20036;-73
2023/01/09 08:17:05;;;;;;;48.03;23.48;;;;;;;;;;4914736;29;20052;-72
2023/01/09 08:19:30;;;;;;;43.90;23.63;;;;;;;;;;4914718;29;20036;-73
2023/01/09 08:21:58;;;;;;;47.25;25.05;;;;;;;;;;4913043;29;20562;-72
2023/01/09 08:24:24;;;;;;;44.75;22.63;;;;;;;;;;4914407;29;20028;-73
2023/01/09 08:26:49;;;;;;;34.88;21.23;;;;;;;;;;4914776;29;20032;-72
2023/01/09 08:29:15;;;;;;;36.30;20.05;;;;;;;;;;4914312;29;20028;-71
2023/01/09 08:31:41;;;;;;;33.88;20.48;;;;;;;;;;4915807;29;20040;-72
2023/01/09 08:34:07;;;;;;;34.60;19.05;;;;;;;;;;4917018;29;20031;-73
2023/01/09 08:36:34;;;;;;;34.72;21.27;;;;;;;;;;4914847;29;20413;-73
2023/01/09 08:39:00;;;;;;;34.17;21.27;;;;;;;;;;4912902;29;20158;-72
2023/01/09 08:47:08;;;;;;;31.90;19.35;;;;;;;;;;4885410;29;20045;-72
2023/01/09 08:49:37;;;;;;;35.58;21.88;;;;;;;;;;4895927;29;20073;-71
2023/01/09 08:52:04;;;;;;;36.67;21.35;;;;;;;;;;4895753;29;20060;-73
2023/01/09 08:54:31;;;;;;;36.38;21.60;;;;;;;;;;4896689;29;20088;-72
2023/01/09 08:56:57;;;;;;;41.08;21.80;;;;;;;;;;4912958;29;20597;-72
2023/01/09 08:59:22;;;;;;;39.75;23.08;;;;;;;;;;4915210;29;20047;-71
2023/01/09 09:01:48;;;;;;;37.88;22.40;;;;;;;;;;4914422;29;20100;-71
2023/01/09 10:59:25;;;;;;;33.13;20.17;;;;;;;;;;4925175;29;40074;-69
2023/01/09 11:01:52;;;;;;;34.13;21.92;;;;;;;;;;4942627;29;20410;-69
2023/01/09 11:04:31;;;;;;;33.50;21.70;;;;;;;;;;4937614;29;20094;-71
2023/01/09 11:07:19;;;;;;;40.15;21.15;;;;;;;;;;4917783;29;20301;-69
2023/01/09 11:10:07;;;;;;;31.33;20.08;;;;;;;;;;4844804;29;20045;-70
2023/01/09 11:12:34;;;;;;;29.50;18.95;;;;;;;;;;4784763;29;20134;-70
2023/01/09 11:15:15;;;;;;;24.63;16.30;;;;;;;;;;4781043;29;20043;-70
2023/01/09 11:17:41;;;;;;;25.15;14.73;;;;;;;;;;4696797;29;20052;-70
2023/01/09 11:20:21;;;;;;;26.20;16.00;;;;;;;;;;4566933;30;1234222;-70
2023/01/09 11:22:49;;;;;;;27.17;16.02;;;;;;;;;;4549025;31;20129;-70
2023/01/09 11:25:17;;;;;;;26.33;14.05;;;;;;;;;;4534746;31;20049;-68
2023/01/09 11:27:54;;;;;;;23.33;14.38;;;;;;;;;;4536095;31;20194;-70
2023/01/09 11:30:28;;;;;;;27.08;17.38;;;;;;;;;;4545114;31;20076;-71
2023/01/09 11:32:58;;;;;;;24.77;14.82;;;;;;;;;;4549015;31;20042;-71
2023/01/09 11:35:26;;;;;;;20.00;13.20;;;;;;;;;;4548802;31;20420;-72
2023/01/09 11:38:15;;;;;;;27.30;16.27;;;;;;;;;;4568798;31;20125;-70
2023/01/09 11:41:03;;;;;;;25.05;15.05;;;;;;;;;;4548651;31;20069;-71
2023/01/09 11:43:31;;;;;;;23.42;15.32;;;;;;;;;;4533858;31;20362;-70
2023/01/09 11:46:06;;;;;;;24.98;16.33;;;;;;;;;;4532266;31;20094;-71
2023/01/09 11:48:53;;;;;;;25.40;14.73;;;;;;;;;;4539023;31;20371;-70
2023/01/09 11:51:30;;;;;;;26.38;15.70;;;;;;;;;;4547179;31;20470;-70
2023/01/09 11:53:59;;;;;;;28.60;17.00;;;;;;;;;;4537792;31;20098;-71
2023/01/09 11:56:25;;;;;;;30.90;18.67;;;;;;;;;;4544660;31;20038;-73
2023/01/09 11:58:51;;;;;;;27.08;16.85;;;;;;;;;;4539153;31;20041;-71
2023/01/09 12:01:58;;;;;;;30.88;18.63;;;;;;;;;;4548757;31;20423;-72
2023/01/09 12:05:07;;;;;;;32.58;17.73;;;;;;;;;;4543126;31;20065;-71
2023/01/09 12:08:06;;;;;;;24.73;16.70;;;;;;;;;;4548687;31;20057;-71
2023/01/09 12:10:42;;;;;;;27.65;17.77;;;;;;;;;;4538701;31;20045;-71
2023/01/09 12:13:13;;;;;;;31.75;18.15;;;;;;;;;;4537812;31;20140;-72
2023/01/09 12:15:45;;;;;;;28.80;19.33;;;;;;;;;;4545388;31;20052;-71
2023/01/09 12:18:25;;;;;;;29.50;17.58;;;;;;;;;;4554240;31;20161;-71
2023/01/09 12:21:19;;;;;;;26.27;16.67;;;;;;;;;;4509496;31;20125;-71
2023/01/09 12:24:21;;;;;;;31.53;18.90;;;;;;;;;;4497544;31;20495;-72
2023/01/09 12:27:29;;;;;;;31.85;20.08;;;;;;;;;;4497696;31;20857;-71
2023/01/09 12:30:18;;;;;;;36.15;21.50;;;;;;;;;;4496786;31;20556;-71
2023/01/09 12:33:02;;;;;;;36.17;21.88;;;;;;;;;;4496085;31;20047;-70
2023/01/09 12:35:45;;;;;;;82.22;43.25;;;;;;;;;;4495885;31;20074;-71
2023/01/09 12:38:38;;;;;;;32.17;19.70;;;;;;;;;;4495652;31;20063;-70
2023/01/09 12:41:31;;;;;;;37.17;20.60;;;;;;;;;;4494910;31;20059;-70
2023/01/09 12:44:00;;;;;;;32.23;19.63;;;;;;;;;;4502537;31;20637;-69
2023/01/09 12:46:53;;;;;;;36.13;21.05;;;;;;;;;;4530073;31;20054;-71
2023/01/09 12:49:54;;;;;;;33.28;20.60;;;;;;;;;;4531704;31;20559;-71
2023/01/09 12:52:30;;;;;;;37.30;21.20;;;;;;;;;;4577784;31;20052;-71
2023/01/09 12:55:20;;;;;;;39.92;22.80;;;;;;;;;;4547851;31;20503;-71
2023/01/09 12:57:49;;;;;;;34.47;21.55;;;;;;;;;;4531472;31;20556;-72
2023/01/09 13:00:22;;;;;;;37.17;22.52;;;;;;;;;;4529334;31;20046;-72
2023/01/09 13:03:09;;;;;;;35.85;21.65;;;;;;;;;;4531531;31;20042;-70
2023/01/09 13:05:47;;;;;;;34.60;21.77;;;;;;;;;;4529775;31;20042;-71
2023/01/09 13:08:19;;;;;;;34.58;21.92;;;;;;;;;;4530350;31;20157;-70
2023/01/09 13:10:48;;;;;;;36.00;22.05;;;;;;;;;;4531616;31;20121;-70
2023/01/09 13:13:29;;;;;;;34.88;21.33;;;;;;;;;;4530791;31;20030;-70
2023/01/09 13:16:03;;;;;;;37.17;22.67;;;;;;;;;;4539028;31;20042;-71
2023/01/09 13:18:40;;;;;;;38.58;22.15;;;;;;;;;;4710591;30;20469;-70
2023/01/09 13:21:08;;;;;;;40.78;23.17;;;;;;;;;;4782361;29;20438;-70
2023/01/09 13:23:58;;;;;;;36.53;21.70;;;;;;;;;;4785971;30;20027;-70
2023/01/09 13:26:29;;;;;;;41.25;23.73;;;;;;;;;;4785417;29;20035;-71
2023/01/09 13:29:01;;;;;;;37.97;22.40;;;;;;;;;;4785206;29;20565;-70
2023/01/09 13:32:04;;;;;;;38.00;23.00;;;;;;;;;;4776691;30;20410;-71
2023/01/09 13:34:33;;;;;;;42.63;22.13;;;;;;;;;;4784887;30;20047;-71
2023/01/09 13:36:59;;;;;;;38.80;21.05;;;;;;;;;;4785978;29;20027;-70
2023/01/09 13:39:34;;;;;;;37.65;22.52;;;;;;;;;;4785317;29;20229;-71
2023/01/09 13:44:54;;;;;;;32.28;20.92;;;;;;;;;;4780040;30;20043;-70
2023/01/09 13:47:23;;;;;;;45.17;24.17;;;;;;;;;;4774654;30;20125;-70
2023/01/09 13:49:49;;;;;;;42.85;23.83;;;;;;;;;;4785702;29;20121;-71
2023/01/09 13:52:40;;;;;;;63.17;31.65;;;;;;;;;;4785608;30;20059;-70
2023/01/09 13:55:15;;;;;;;38.50;24.58;;;;;;;;;;4783831;30;20043;-71
2023/01/09 13:58:02;;;;;;;41.25;24.30;;;;;;;;;;4778845;30;20066;-71
2023/01/09 14:00:28;;;;;;;49.35;26.40;;;;;;;;;;4784577;30;20055;-71
2023/01/09 14:03:02;;;;;;;48.15;25.98;;;;;;;;;;4783674;30;20035;-71
2023/01/09 14:05:28;;;;;;;56.67;37.53;;;;;;;;;;4785322;29;20042;-70
2023/01/09 14:08:10;;;;;;;51.78;28.73;;;;;;;;;;4786473;30;20031;-70
2023/01/09 14:10:42;;;;;;;43.80;27.02;;;;;;;;;;4778975;29;20050;-70
2023/01/09 14:13:14;;;;;;;47.03;27.58;;;;;;;;;;4786426;30;20067;-69
2023/01/09 14:15:43;;;;;;;46.70;24.43;;;;;;;;;;4779308;30;20035;-70
2023/01/09 14:18:17;;;;;;;39.35;24.45;;;;;;;;;;4807443;29;20360;-71
2023/01/09 14:20:51;;;;;;;43.85;22.02;;;;;;;;;;4840289;29;20132;-71
2023/01/09 14:23:24;;;;;;;38.63;21.23;;;;;;;;;;4839411;29;20129;-70
2023/01/09 14:25:52;;;;;;;38.13;21.80;;;;;;;;;;4839732;29;20057;-70
2023/01/09 14:28:26;;;;;;;35.47;22.13;;;;;;;;;;4840426;29;20041;-70
2023/01/09 14:30:51;;;;;;;39.05;22.73;;;;;;;;;;4823779;29;20045;-72
2023/01/09 14:33:21;;;;;;;46.42;24.38;;;;;;;;;;4840575;29;20404;-71
2023/01/09 14:35:52;;;;;;;36.28;21.00;;;;;;;;;;4840398;29;20038;-70
2023/01/09 14:38:40;;;;;;;35.67;22.50;;;;;;;;;;4840635;29;20488;-70
2023/01/09 14:44:41;;;;;;;38.25;21.38;;;;;;;;;;4837914;29;20046;-71
2023/01/09 14:47:17;;;;;;;33.40;20.85;;;;;;;;;;4838505;29;20075;-71
2023/01/09 14:50:07;;;;;;;36.05;22.58;;;;;;;;;;4836411;29;20556;-73
2023/01/09 14:52:54;;;;;;;35.38;21.80;;;;;;;;;;4839372;29;20037;-71
2023/01/09 14:55:43;;;;;;;43.22;23.48;;;;;;;;;;4837957;29;20080;-71
2023/01/09 14:58:19;;;;;;;49.33;25.02;;;;;;;;;;4838105;29;20052;-71
2023/01/09 15:00:47;;;;;;;41.20;22.33;;;;;;;;;;4839985;29;20111;-71
2023/01/09 15:03:14;;;;;;;42.35;24.52;;;;;;;;;;4843560;29;20025;-70
2023/01/09 15:05:41;;;;;;;36.78;21.70;;;;;;;;;;4825492;29;20037;-71
2023/01/09 15:08:10;;;;;;;38.80;23.23;;;;;;;;;;4825999;29;20145;-70
2023/01/09 15:10:37;;;;;;;38.33;23.60;;;;;;;;;;4826876;29;20124;-70
2023/01/09 15:13:06;;;;;;;45.72;25.98;;;;;;;;;;4842702;29;20030;-70
2023/01/09 15:15:34;;;;;;;38.92;23.83;;;;;;;;;;4842374;29;20037;-71
2023/01/09 15:18:06;;;;;;;37.72;22.88;;;;;;;;;;4880580;29;20043;-71
2023/01/09 15:20:33;;;;;;;42.08;24.05;;;;;;;;;;4915166;29;20040;-71
2023/01/09 15:22:59;;;;;;;40.35;22.83;;;;;;;;;;4916268;29;20028;-72
2023/01/09 15:25:32;;;;;;;37.92;22.30;;;;;;;;;;4916770;29;20077;-70
2023/01/09 15:27:59;;;;;;;38.10;22.35;;;;;;;;;;4916644;29;20095;-73
2023/01/09 15:30:35;;;;;;;37.03;23.20;;;;;;;;;;4916639;29;20035;-72
2023/01/09 15:33:03;;;;;;;42.47;25.35;;;;;;;;;;4900741;29;20716;-72
2023/01/09 15:35:29;;;;;;;49.88;28.05;;;;;;;;;;4901267;29;20032;-71
2023/01/09 15:37:57;;;;;;;58.28;29.55;;;;;;;;;;4898419;29;20047;-71
2023/01/09 15:40:32;;;;;;;50.75;28.02;;;;;;;;;;4916618;29;20035;-71
2023/01/09 15:43:00;;;;;;;56.22;29.45;;;;;;;;;;4917652;29;20046;-72
2023/01/09 15:45:42;;;;;;;46.60;27.27;;;;;;;;;;4898084;29;20036;-72
2023/01/09 15:48:25;;;;;;;50.30;27.77;;;;;;;;;;4898380;29;20032;-72
2023/01/09 15:51:00;;;;;;;52.50;28.65;;;;;;;;;;4898358;29;20037;-73
2023/01/09 15:53:27;;;;;;;56.75;31.05;;;;;;;;;;4890329;29;20145;-73
2023/01/09 15:56:06;;;;;;;72.22;36.67;;;;;;;;;;4916107;29;20027;-71
2023/01/09 15:58:45;;;;;;;71.93;36.08;;;;;;;;;;4889136;29;20504;-72
2023/01/09 16:01:26;;;;;;;79.82;39.60;;;;;;;;;;4905568;29;20055;-72
2023/01/09 16:03:55;;;;;;;74.40;36.92;;;;;;;;;;4909131;29;20043;-72
2023/01/09 16:06:30;;;;;;;81.70;39.58;;;;;;;;;;4914115;29;20035;-72
2023/01/09 16:08:59;;;;;;;69.70;36.88;;;;;;;;;;4911039;29;20040;-72
2023/01/09 16:11:31;;;;;;;81.30;38.58;;;;;;;;;;4913001;29;20486;-73
2023/01/09 16:14:10;;;;;;;63.78;34.88;;;;;;;;;;4908644;29;20032;-71
2023/01/09 16:16:35;;;;;;;68.75;36.63;;;;;;;;;;4915618;29;20151;-72
2023/01/09 16:19:01;;;;;;;66.60;37.70;;;;;;;;;;4916125;29;20065;-72
2023/01/09 16:21:32;;;;;;;64.82;37.17;;;;;;;;;;4902878;29;20039;-71
2023/01/09 16:24:19;;;;;;;69.65;35.60;;;;;;;;;;4925059;29;20111;-73
2023/01/09 16:26:44;;;;;;;54.03;31.77;;;;;;;;;;4927450;29;20043;-73
2023/01/09 16:29:48;;;;;;;58.30;28.48;;;;;;;;;;4919481;29;20031;-72
2023/01/09 16:32:19;;;;;;;61.80;27.60;;;;;;;;;;4857432;29;20042;-72
2023/01/09 16:34:52;;;;;;;59.50;32.95;;;;;;;;;;4860225;29;20037;-72
2023/01/09 16:37:19;;;;;;;55.53;31.13;;;;;;;;;;4876121;29;20041;-72
2023/01/09 16:40:13;;;;;;;56.80;31.13;;;;;;;;;;4860261;29;20033;-72
2023/01/09 16:45:30;;;;;;;57.70;29.65;;;;;;;;;;4872930;29;20128;-71
2023/01/09 16:47:56;;;;;;;55.13;30.13;;;;;;;;;;4875673;29;20503;-70
2023/01/09 16:50:23;;;;;;;58.50;31.73;;;;;;;;;;4876111;29;20044;-70
2023/01/09 16:52:50;;;;;;;55.88;31.27;;;;;;;;;;4875883;29;20073;-71